Time;durP1;ratioP1;P1;durP2;ratioP2;P2;SDS_P1;SDS_P2;PMS_P1;PMS_P2;Temp;Humidity;BMP_temperature;BMP_pressure;BME280_temperature;BME280_humidity;BME280_pressure;Samples;Min_cycle;Max_cycle;Signal;HPM_P1;HPM_P2
2024/01/21 00:02:14;;;;;;;8.30;5.20;;;0.20;99.90;;;;;;4830670;29;20074;-88
2024/01/21 00:04:40;;;;;;;6.68;5.35;;;0.40;99.90;;;;;;4832813;29;20130;-84
2024/01/21 00:07:07;;;;;;;8.02;5.68;;;0.20;99.90;;;;;;4843536;29;20057;-83
2024/01/21 00:09:33;;;;;;;6.63;5.18;;;0.10;99.90;;;;;;4863447;29;20053;-88
2024/01/21 00:11:58;;;;;;;8.05;5.28;;;0.10;99.90;;;;;;4824221;29;20046;-85
2024/01/21 00:14:24;;;;;;;8.68;5.20;;;1.30;99.90;;;;;;4833470;29;20074;-84
2024/01/21 00:16:50;;;;;;;7.57;5.05;;;0.10;99.90;;;;;;4827115;29;20046;-90
2024/01/21 00:19:16;;;;;;;7.68;5.50;;;0.20;99.90;;;;;;4822975;29;20077;-87
2024/01/21 00:21:42;;;;;;;5.70;4.88;;;0.20;99.90;;;;;;4834197;29;20045;-87
2024/01/21 00:24:07;;;;;;;6.97;5.15;;;0.40;99.90;;;;;;4834655;29;20042;-86
2024/01/21 00:26:33;;;;;;;6.10;4.57;;;0.30;99.90;;;;;;4832237;29;20054;-86
2024/01/21 00:29:00;;;;;;;8.50;5.28;;;0.30;99.90;;;;;;4827950;29;20042;-85
2024/01/21 00:31:29;;;;;;;8.40;5.18;;;0.50;99.90;;;;;;4849029;29;20046;-85
2024/01/21 00:33:55;;;;;;;5.75;4.15;;;0.30;99.90;;;;;;4826645;29;20418;-83
2024/01/21 00:36:21;;;;;;;6.13;5.05;;;0.60;99.90;;;;;;4832149;29;20053;-83
2024/01/21 00:38:46;;;;;;;8.68;5.03;;;0.30;99.90;;;;;;4848256;29;20567;-85
2024/01/21 00:41:13;;;;;;;8.63;4.53;;;0.30;99.90;;;;;;4863939;29;20057;-85
2024/01/21 00:43:39;;;;;;;6.20;4.82;;;0.20;99.90;;;;;;4850528;29;20133;-89
2024/01/21 00:46:05;;;;;;;7.35;4.53;;;0.30;99.90;;;;;;4837753;29;20046;-87
2024/01/21 00:48:31;;;;;;;5.00;4.13;;;0.20;99.90;;;;;;4862516;29;20043;-83
2024/01/21 00:50:57;;;;;;;5.45;4.40;;;0.70;99.90;;;;;;4849816;29;20092;-88
2024/01/21 00:53:23;;;;;;;4.78;3.80;;;0.20;99.90;;;;;;4862287;29;20058;-88
2024/01/21 00:55:49;;;;;;;6.85;5.13;;;0.30;99.90;;;;;;4835856;29;20049;-87
2024/01/21 00:58:14;;;;;;;6.05;3.95;;;0.20;99.90;;;;;;4849191;29;20050;-85
2024/01/21 01:00:40;;;;;;;5.70;3.92;;;0.30;99.90;;;;;;4831626;29;20062;-86
2024/01/21 01:03:06;;;;;;;6.15;4.32;;;0.30;99.90;;;;;;4830413;29;20414;-83
2024/01/21 01:05:32;;;;;;;6.07;4.00;;;0.30;99.90;;;;;;4845647;29;20050;-83
2024/01/21 01:07:58;;;;;;;5.90;3.80;;;0.30;99.90;;;;;;4842674;29;20098;-85
2024/01/21 01:10:23;;;;;;;4.65;3.78;;;0.30;99.90;;;;;;4845093;29;20451;-86
2024/01/21 01:12:49;;;;;;;4.07;3.50;;;0.30;99.90;;;;;;4840309;29;20191;-84
2024/01/21 01:15:15;;;;;;;5.63;3.65;;;0.30;99.90;;;;;;4827711;29;20042;-85
2024/01/21 01:17:40;;;;;;;6.80;3.92;;;1.50;99.90;;;;;;4824103;29;20482;-86
2024/01/21 01:20:07;;;;;;;4.82;3.92;;;1.30;99.90;;;;;;4820314;29;20066;-86
2024/01/21 01:22:33;;;;;;;4.68;3.80;;;0.40;99.90;;;;;;4863148;29;20113;-88
2024/01/21 01:24:59;;;;;;;4.35;3.55;;;0.60;99.90;;;;;;4864912;29;20574;-86
2024/01/21 01:27:24;;;;;;;5.80;3.92;;;0.40;99.90;;;;;;4829946;29;20074;-85
2024/01/21 01:29:51;;;;;;;6.07;3.58;;;0.50;99.90;;;;;;4847746;29;20047;-88
2024/01/21 01:32:17;;;;;;;4.10;3.10;;;0.50;99.90;;;;;;4846388;29;20487;-84
2024/01/21 01:34:42;;;;;;;5.28;3.50;;;0.50;99.90;;;;;;4850984;29;20078;-86
2024/01/21 01:37:11;;;;;;;4.93;3.75;;;0.50;99.90;;;;;;4833278;29;20095;-87
2024/01/21 01:39:37;;;;;;;4.75;3.50;;;0.50;99.90;;;;;;4845570;29;20478;-86
2024/01/21 01:42:03;;;;;;;6.60;3.83;;;0.50;99.90;;;;;;4849419;29;20041;-84
2024/01/21 01:44:29;;;;;;;6.03;3.95;;;0.60;99.90;;;;;;4842579;29;20137;-84
2024/01/21 01:46:55;;;;;;;4.60;3.30;;;0.50;99.90;;;;;;4850121;29;20058;-86
2024/01/21 01:49:21;;;;;;;7.32;3.92;;;0.60;99.90;;;;;;4833400;29;20045;-83
2024/01/21 01:51:47;;;;;;;5.72;3.40;;;0.60;99.90;;;;;;4848074;29;20046;-84
2024/01/21 01:54:16;;;;;;;3.60;3.15;;;0.80;99.90;;;;;;4832943;29;20090;-85
2024/01/21 01:56:42;;;;;;;4.30;2.95;;;1.10;99.90;;;;;;4864977;29;20050;-85
2024/01/21 01:59:10;;;;;;;4.82;3.53;;;0.70;99.90;;;;;;4831006;29;20070;-83
2024/01/21 02:01:39;;;;;;;4.13;3.22;;;1.00;99.90;;;;;;4826140;29;20050;-86
2024/01/21 02:04:07;;;;;;;3.88;3.03;;;0.70;99.90;;;;;;4832381;29;20054;-85
2024/01/21 02:06:33;;;;;;;5.38;3.33;;;0.80;99.90;;;;;;4839057;29;20076;-85
2024/01/21 02:08:59;;;;;;;6.28;3.63;;;1.00;99.90;;;;;;4831445;29;20046;-86
2024/01/21 02:11:24;;;;;;;4.75;3.08;;;0.70;99.90;;;;;;4863415;29;20621;-85
2024/01/21 02:13:50;;;;;;;5.55;3.03;;;0.70;99.90;;;;;;4829484;29;20073;-84
2024/01/21 02:16:16;;;;;;;4.43;2.90;;;0.80;99.90;;;;;;4832237;29;20050;-82
2024/01/21 02:18:46;;;;;;;3.75;2.78;;;0.80;99.90;;;;;;4820858;29;20507;-83
2024/01/21 02:21:12;;;;;;;4.28;2.70;;;0.80;99.90;;;;;;4824033;29;20046;-88
2024/01/21 02:23:38;;;;;;;2.97;2.58;;;2.20;99.90;;;;;;4846984;29;20076;-86
2024/01/21 02:26:04;;;;;;;4.32;2.85;;;0.80;99.90;;;;;;4834859;29;20049;-84
2024/01/21 02:28:30;;;;;;;6.55;3.13;;;0.90;99.90;;;;;;4834836;29;20476;-85
2024/01/21 02:30:55;;;;;;;3.65;2.42;;;0.90;99.90;;;;;;4827474;29;20094;-82
2024/01/21 02:33:21;;;;;;;2.55;2.33;;;1.30;99.90;;;;;;4830975;29;20128;-82
2024/01/21 02:35:47;;;;;;;4.13;3.00;;;2.30;99.90;;;;;;4819496;29;20051;-81
2024/01/21 02:38:13;;;;;;;3.17;2.60;;;1.00;99.90;;;;;;4848207;29;20066;-82
2024/01/21 02:40:40;;;;;;;3.67;2.30;;;1.00;99.90;;;;;;4822685;29;20511;-83
2024/01/21 02:43:07;;;;;;;4.88;2.75;;;1.00;99.90;;;;;;4824816;29;20042;-85
2024/01/21 02:45:33;;;;;;;2.72;2.42;;;1.90;99.90;;;;;;4830984;29;20054;-84
2024/01/21 02:47:59;;;;;;;4.75;2.85;;;1.90;99.90;;;;;;4834896;29;20065;-82
2024/01/21 02:50:24;;;;;;;3.72;2.05;;;1.10;99.90;;;;;;4849030;29;20049;-82
2024/01/21 02:52:50;;;;;;;3.92;2.40;;;1.00;99.90;;;;;;4834082;29;20053;-83
2024/01/21 02:55:16;;;;;;;3.70;2.42;;;1.00;99.90;;;;;;4834535;29;20075;-81
2024/01/21 02:57:41;;;;;;;3.72;2.20;;;1.00;99.90;;;;;;4833428;29;20057;-85
2024/01/21 03:00:07;;;;;;;2.58;2.08;;;1.00;99.90;;;;;;4834799;29;20046;-85
2024/01/21 03:02:33;;;;;;;3.58;2.85;;;1.00;99.90;;;;;;4846333;29;20041;-86
2024/01/21 03:04:59;;;;;;;2.97;2.05;;;1.00;99.90;;;;;;4864899;29;20414;-85
2024/01/21 03:07:25;;;;;;;2.47;1.90;;;0.90;99.90;;;;;;4826685;29;20045;-83
2024/01/21 03:09:51;;;;;;;3.08;2.53;;;1.20;99.90;;;;;;4822076;29;20048;-86
2024/01/21 03:12:17;;;;;;;3.00;1.90;;;1.00;99.90;;;;;;4830319;29;20042;-85
2024/01/21 03:14:42;;;;;;;2.70;2.13;;;1.50;99.90;;;;;;4847693;29;20057;-82
2024/01/21 03:17:09;;;;;;;3.47;2.17;;;1.60;99.90;;;;;;4839501;29;20050;-84
2024/01/21 03:19:34;;;;;;;3.55;1.92;;;1.20;99.90;;;;;;4817083;29;20536;-84
2024/01/21 03:22:00;;;;;;;2.63;2.10;;;1.30;99.90;;;;;;4846236;29;20059;-86
2024/01/21 03:24:26;;;;;;;2.85;1.95;;;1.20;99.90;;;;;;4860036;29;20077;-86
2024/01/21 03:26:52;;;;;;;4.38;2.30;;;1.20;99.90;;;;;;4826525;29;20045;-86
2024/01/21 03:29:17;;;;;;;3.55;2.28;;;1.80;99.90;;;;;;4848751;29;20050;-83
2024/01/21 03:31:43;;;;;;;2.20;1.70;;;1.20;99.90;;;;;;4838711;29;20055;-87
2024/01/21 03:34:09;;;;;;;2.80;2.40;;;1.20;99.90;;;;;;4861361;29;20580;-84
2024/01/21 03:36:34;;;;;;;3.28;2.28;;;1.20;99.90;;;;;;4844010;29;20054;-83
2024/01/21 03:39:00;;;;;;;3.25;2.40;;;1.20;99.90;;;;;;4845465;29;20042;-85
2024/01/21 03:41:26;;;;;;;2.83;2.00;;;1.20;99.90;;;;;;4859726;29;20053;-83
2024/01/21 03:43:51;;;;;;;2.10;1.90;;;1.50;99.90;;;;;;4833198;29;20437;-81
2024/01/21 03:46:18;;;;;;;3.08;1.80;;;1.30;99.90;;;;;;4826037;29;20058;-81
2024/01/21 03:48:44;;;;;;;2.75;1.85;;;1.30;99.90;;;;;;4832965;29;20046;-85
2024/01/21 03:51:12;;;;;;;2.33;1.77;;;1.50;99.90;;;;;;4844635;29;20528;-84
2024/01/21 03:53:39;;;;;;;3.15;2.25;;;1.30;99.90;;;;;;4839739;29;20045;-82
2024/01/21 03:56:08;;;;;;;2.92;1.90;;;1.30;99.90;;;;;;4841170;29;20062;-82
2024/01/21 03:58:34;;;;;;;2.92;2.05;;;1.30;99.90;;;;;;4829655;29;20131;-82
2024/01/21 04:01:03;;;;;;;3.40;2.10;;;1.30;99.90;;;;;;4832899;29;20073;-81
2024/01/21 04:03:29;;;;;;;2.78;1.90;;;1.30;99.90;;;;;;4832695;29;20042;-81
2024/01/21 04:05:54;;;;;;;2.78;1.90;;;1.30;99.90;;;;;;4829272;29;20052;-83
2024/01/21 04:08:21;;;;;;;3.50;1.90;;;2.90;99.90;;;;;;4833430;29;20517;-81
2024/01/21 04:10:47;;;;;;;3.70;2.05;;;1.30;99.90;;;;;;4832218;29;20076;-81
2024/01/21 04:13:13;;;;;;;3.17;2.00;;;1.30;99.90;;;;;;4833816;29;20078;-82
2024/01/21 04:15:38;;;;;;;3.22;1.95;;;1.70;99.90;;;;;;4828505;29;20575;-83
2024/01/21 04:18:04;;;;;;;1.73;1.60;;;1.30;99.90;;;;;;4830544;29;20050;-84
2024/01/21 04:20:30;;;;;;;2.25;1.67;;;1.40;99.90;;;;;;4861028;29;20077;-81
2024/01/21 04:22:56;;;;;;;2.70;1.80;;;1.40;99.90;;;;;;4832589;29;20069;-84
2024/01/21 04:25:21;;;;;;;3.33;2.30;;;1.50;99.90;;;;;;4824517;29;20038;-84
2024/01/21 04:27:47;;;;;;;2.25;1.90;;;1.50;99.90;;;;;;4838244;29;20062;-82
2024/01/21 04:30:13;;;;;;;1.95;1.75;;;1.50;99.90;;;;;;4861587;29;20386;-85
2024/01/21 04:32:38;;;;;;;2.25;1.98;;;1.50;99.90;;;;;;4822851;29;20091;-85
2024/01/21 04:35:05;;;;;;;1.88;1.58;;;1.50;99.90;;;;;;4846071;29;20049;-85
2024/01/21 04:37:31;;;;;;;3.28;2.20;;;1.60;99.90;;;;;;4846345;29;20080;-81
2024/01/21 04:39:56;;;;;;;2.13;1.60;;;1.50;99.90;;;;;;4847670;29;20057;-80
2024/01/21 04:42:22;;;;;;;2.10;1.70;;;1.50;99.90;;;;;;4847715;29;20045;-81
2024/01/21 04:44:48;;;;;;;2.65;2.10;;;1.50;99.90;;;;;;4843979;29;20498;-82
2024/01/21 04:47:13;;;;;;;2.15;1.90;;;1.50;99.90;;;;;;4832046;29;20106;-82
2024/01/21 04:49:39;;;;;;;2.65;2.15;;;1.50;99.90;;;;;;4836437;29;20047;-82
2024/01/21 04:52:05;;;;;;;2.55;1.80;;;1.50;99.90;;;;;;4822161;29;20109;-81
2024/01/21 04:54:31;;;;;;;1.95;1.70;;;1.50;99.90;;;;;;4845887;29;20049;-84
2024/01/21 04:56:56;;;;;;;2.10;1.80;;;1.50;99.90;;;;;;4846581;29;20100;-86
2024/01/21 04:59:22;;;;;;;2.13;1.92;;;1.50;99.90;;;;;;4846875;29;20503;-83
2024/01/21 05:01:49;;;;;;;1.90;1.60;;;1.50;99.90;;;;;;4831390;29;20045;-84
2024/01/21 05:04:14;;;;;;;2.50;1.83;;;1.60;99.90;;;;;;4835257;29;20077;-85
2024/01/21 05:06:40;;;;;;;2.22;1.70;;;1.60;99.90;;;;;;4834045;29;20049;-84
2024/01/21 05:09:06;;;;;;;2.63;1.88;;;1.60;99.90;;;;;;4851599;29;20054;-82
2024/01/21 05:11:31;;;;;;;2.58;2.13;;;1.60;99.90;;;;;;4834831;29;20041;-81
2024/01/21 05:13:57;;;;;;;2.55;1.85;;;1.50;99.90;;;;;;4821756;29;20141;-86
2024/01/21 05:16:23;;;;;;;2.65;2.08;;;1.50;99.90;;;;;;4829821;29;20046;-81
2024/01/21 05:18:49;;;;;;;6.82;2.00;;;1.60;99.90;;;;;;4862518;29;20574;-80
2024/01/21 05:21:21;;;;;;;1.88;1.70;;;2.00;99.90;;;;;;4863313;29;20045;-81
2024/01/21 05:23:51;;;;;;;2.33;1.77;;;1.50;99.90;;;;;;4863696;29;20043;-83
2024/01/21 05:26:17;;;;;;;2.83;1.88;;;1.50;99.90;;;;;;4836005;29;20069;-80
2024/01/21 05:28:44;;;;;;;2.38;1.80;;;1.60;99.90;;;;;;4832114;29;20050;-82
2024/01/21 05:31:10;;;;;;;3.10;2.13;;;1.50;99.90;;;;;;4834217;29;20511;-80
2024/01/21 05:33:36;;;;;;;2.30;2.10;;;1.50;99.90;;;;;;4828506;29;20042;-85
2024/01/21 05:36:02;;;;;;;5.70;1.90;;;1.50;99.90;;;;;;4830723;29;20567;-89
2024/01/21 05:38:27;;;;;;;4.00;2.00;;;1.50;99.90;;;;;;4835395;29;20077;-84
2024/01/21 05:40:54;;;;;;;2.05;1.73;;;1.60;99.90;;;;;;4833978;29;20094;-83
2024/01/21 05:43:19;;;;;;;3.17;2.10;;;1.60;99.90;;;;;;4850841;29;20042;-83
2024/01/21 05:45:45;;;;;;;3.20;2.03;;;1.70;99.90;;;;;;4848406;29;20194;-85
2024/01/21 05:48:11;;;;;;;2.70;1.90;;;1.80;99.90;;;;;;4850108;29;20042;-83
2024/01/21 05:50:36;;;;;;;3.05;2.20;;;1.80;99.90;;;;;;4841476;29;20088;-85
2024/01/21 05:53:06;;;;;;;2.15;1.95;;;1.90;99.90;;;;;;4849405;29;20054;-83
2024/01/21 05:55:32;;;;;;;1.85;1.65;;;1.90;99.90;;;;;;4826892;29;20066;-82
2024/01/21 05:57:58;;;;;;;2.85;2.53;;;1.90;99.90;;;;;;4833324;29;20053;-82
2024/01/21 06:00:24;;;;;;;2.92;1.92;;;1.90;99.90;;;;;;4850512;29;20050;-82
2024/01/21 06:02:52;;;;;;;2.58;2.17;;;2.00;99.90;;;;;;4833629;29;20053;-83
2024/01/21 06:05:17;;;;;;;2.90;1.92;;;2.10;99.90;;;;;;4834546;29;20137;-82
2024/01/21 06:07:45;;;;;;;3.00;2.20;;;2.90;99.90;;;;;;4842562;29;20085;-84
2024/01/21 06:10:11;;;;;;;2.70;1.98;;;2.30;99.90;;;;;;4821213;29;20519;-82
2024/01/21 06:12:37;;;;;;;3.03;2.03;;;2.30;99.90;;;;;;4823765;29;20082;-83
2024/01/21 06:15:03;;;;;;;8.82;8.18;;;2.30;99.90;;;;;;4844921;29;20488;-84
2024/01/21 06:17:29;;;;;;;2.85;2.25;;;2.40;99.90;;;;;;4817098;29;20050;-83
2024/01/21 06:19:55;;;;;;;3.90;2.30;;;2.50;99.90;;;;;;4830681;29;20061;-89
2024/01/21 06:22:20;;;;;;;3.63;3.03;;;2.70;99.90;;;;;;4821879;29;20054;-85
2024/01/21 06:24:46;;;;;;;4.50;2.22;;;2.60;99.90;;;;;;4862999;29;20053;-90
2024/01/21 06:27:12;;;;;;;3.67;2.65;;;2.70;99.90;;;;;;4824839;29;20081;-88
2024/01/21 06:29:37;;;;;;;2.60;2.20;;;2.50;99.90;;;;;;4849188;29;20049;-84
2024/01/21 06:32:03;;;;;;;3.53;2.85;;;2.60;99.90;;;;;;4863649;29;20065;-88
2024/01/21 06:34:29;;;;;;;3.63;2.53;;;2.50;99.90;;;;;;4833539;29;20046;-88
2024/01/21 06:36:54;;;;;;;3.10;2.30;;;3.30;99.90;;;;;;4832149;29;20061;-85
2024/01/21 06:39:20;;;;;;;8.90;8.30;;;2.50;99.90;;;;;;4833910;29;20074;-85
2024/01/21 06:41:46;;;;;;;49.72;19.13;;;2.50;99.90;;;;;;4832783;29;20073;-87
2024/01/21 06:44:12;;;;;;;5.20;4.60;;;2.50;99.90;;;;;;4832716;29;20042;-87
2024/01/21 06:46:37;;;;;;;5.03;3.22;;;2.50;99.90;;;;;;4823477;29;20062;-84
2024/01/21 06:49:03;;;;;;;3.20;2.90;;;3.40;99.90;;;;;;4848355;29;20053;-86
2024/01/21 06:51:34;;;;;;;4.07;2.60;;;2.50;99.90;;;;;;4844748;29;20053;-89
2024/01/21 06:54:00;;;;;;;3.70;3.40;;;2.50;99.90;;;;;;4827991;29;20053;-81
2024/01/21 06:56:26;;;;;;;3.70;3.40;;;2.50;99.90;;;;;;4861673;29;20079;-84
2024/01/21 06:58:53;;;;;;;5.20;4.70;;;2.40;99.90;;;;;;4844613;29;20103;-83
2024/01/21 07:01:19;;;;;;;4.53;4.20;;;2.60;99.90;;;;;;4847665;29;20050;-83
2024/01/21 07:03:45;;;;;;;5.60;5.18;;;2.40;99.90;;;;;;4825279;29;20057;-83
2024/01/21 07:06:11;;;;;;;4.82;3.50;;;2.50;99.90;;;;;;4844748;29;20107;-88
2024/01/21 07:08:38;;;;;;;9.38;8.77;;;3.10;99.90;;;;;;4861719;29;20046;-82
2024/01/21 07:11:10;;;;;;;6.22;5.72;;;2.70;99.90;;;;;;4844962;29;20050;-84
2024/01/21 07:13:35;;;;;;;3.90;3.40;;;2.40;99.90;;;;;;4834090;29;20081;-84
2024/01/21 07:16:02;;;;;;;10.65;9.95;;;2.40;99.90;;;;;;4840363;29;20042;-83
2024/01/21 07:18:28;;;;;;;4.75;3.70;;;2.40;99.90;;;;;;4820929;29;20053;-84
2024/01/21 07:20:53;;;;;;;5.85;5.45;;;2.90;99.90;;;;;;4825242;29;20054;-85
2024/01/21 07:23:19;;;;;;;5.45;4.95;;;3.00;99.90;;;;;;4845007;29;20069;-84
2024/01/21 07:25:46;;;;;;;4.15;3.72;;;2.30;99.90;;;;;;4818795;29;20083;-81
2024/01/21 07:28:12;;;;;;;10.00;9.30;;;2.70;99.90;;;;;;4846904;29;20050;-86
2024/01/21 07:30:38;;;;;;;4.43;3.95;;;2.30;99.90;;;;;;4822344;29;20080;-87
2024/01/21 07:33:03;;;;;;;7.78;6.97;;;2.30;99.90;;;;;;4845411;29;20047;-81
2024/01/21 07:35:29;;;;;;;5.63;5.13;;;2.20;99.90;;;;;;4844997;29;20050;-81
2024/01/21 07:37:55;;;;;;;6.22;5.63;;;2.60;99.90;;;;;;4848681;29;20056;-82
2024/01/21 07:40:22;;;;;;;5.82;5.22;;;2.50;99.90;;;;;;4829311;29;20054;-85
2024/01/21 07:42:47;;;;;;;7.38;6.70;;;2.10;99.90;;;;;;4830695;29;20042;-82
2024/01/21 07:45:13;;;;;;;11.60;10.75;;;2.00;99.90;;;;;;4862172;29;20090;-82
2024/01/21 07:47:39;;;;;;;5.93;5.10;;;2.00;99.90;;;;;;4848411;29;20526;-83
2024/01/21 07:50:05;;;;;;;6.35;5.55;;;2.20;99.90;;;;;;4847356;29;20113;-83
2024/01/21 07:52:32;;;;;;;4.38;3.95;;;2.00;99.90;;;;;;4818185;29;20050;-88
2024/01/21 07:54:58;;;;;;;5.00;4.25;;;1.90;99.90;;;;;;4828180;29;20058;-82
2024/01/21 07:57:24;;;;;;;13.32;12.52;;;1.90;99.90;;;;;;4847058;29;20042;-84
2024/01/21 07:59:49;;;;;;;6.97;4.82;;;2.10;99.90;;;;;;4847398;29;20109;-83
2024/01/21 08:02:15;;;;;;;12.05;11.18;;;1.90;99.90;;;;;;4823816;29;20050;-87
2024/01/21 08:04:41;;;;;;;5.00;4.50;;;1.90;99.90;;;;;;4833885;29;20053;-84
2024/01/21 08:07:06;;;;;;;6.53;4.72;;;1.90;99.90;;;;;;4833915;29;20054;-83
2024/01/21 08:09:32;;;;;;;5.95;4.63;;;2.50;99.90;;;;;;4845330;29;20121;-82
2024/01/21 08:11:58;;;;;;;7.22;5.72;;;1.90;99.90;;;;;;4847958;29;20080;-84
2024/01/21 08:14:23;;;;;;;5.07;4.15;;;1.90;99.90;;;;;;4832544;29;20547;-83
2024/01/21 08:16:49;;;;;;;6.22;3.95;;;1.90;99.90;;;;;;4833041;29;20088;-84
2024/01/21 08:19:17;;;;;;;5.40;4.32;;;1.90;99.90;;;;;;4831853;29;20270;-85
2024/01/21 08:21:42;;;;;;;6.35;5.72;;;2.20;99.90;;;;;;4841230;29;20343;-81
2024/01/21 08:24:08;;;;;;;5.72;4.63;;;1.90;99.90;;;;;;4847167;29;20133;-80
2024/01/21 08:26:34;;;;;;;5.28;4.78;;;1.90;99.90;;;;;;4848334;29;20117;-80
2024/01/21 08:29:00;;;;;;;6.63;4.95;;;2.20;99.90;;;;;;4848010;29;20077;-80
2024/01/21 08:31:25;;;;;;;6.55;5.93;;;2.40;99.90;;;;;;4825433;29;20054;-82
2024/01/21 08:33:51;;;;;;;8.50;7.68;;;1.90;99.90;;;;;;4844496;29;20665;-82
2024/01/21 08:36:17;;;;;;;6.13;4.68;;;1.90;99.90;;;;;;4841922;29;20034;-82
2024/01/21 08:38:42;;;;;;;5.68;4.43;;;2.00;99.90;;;;;;4850659;29;20061;-82
2024/01/21 08:41:08;;;;;;;7.88;7.13;;;2.20;99.90;;;;;;4848247;29;20037;-83
2024/01/21 08:43:34;;;;;;;7.80;7.03;;;2.00;99.90;;;;;;4849725;29;20404;-83
2024/01/21 08:45:59;;;;;;;6.05;5.55;;;2.00;99.90;;;;;;4848125;29;20061;-81
2024/01/21 08:48:25;;;;;;;7.00;6.30;;;2.00;99.90;;;;;;4832899;29;20105;-84
2024/01/21 08:50:51;;;;;;;5.63;4.10;;;2.10;99.90;;;;;;4831932;29;20147;-80
2024/01/21 08:53:17;;;;;;;5.10;4.60;;;2.10;99.90;;;;;;4848197;29;20445;-81
2024/01/21 08:55:43;;;;;;;4.63;3.92;;;2.10;99.90;;;;;;4849769;29;20087;-83
2024/01/21 08:58:08;;;;;;;6.65;5.97;;;2.00;99.90;;;;;;4848721;29;20050;-84
2024/01/21 09:00:34;;;;;;;5.47;4.93;;;2.00;99.90;;;;;;4849691;29;20042;-82
2024/01/21 09:02:59;;;;;;;6.75;5.60;;;2.00;99.90;;;;;;4848878;29;20034;-86
2024/01/21 09:05:27;;;;;;;5.18;4.68;;;2.20;99.90;;;;;;4850099;29;20534;-87
2024/01/21 09:07:53;;;;;;;7.78;6.97;;;2.10;99.90;;;;;;4848635;29;20054;-83
2024/01/21 09:10:20;;;;;;;6.75;5.70;;;2.60;99.90;;;;;;4833290;29;20150;-80
2024/01/21 09:12:46;;;;;;;6.75;6.22;;;2.10;99.90;;;;;;4848965;29;20046;-85
2024/01/21 09:15:12;;;;;;;7.18;6.15;;;2.20;99.90;;;;;;4818057;29;20090;-84
2024/01/21 09:17:38;;;;;;;6.10;4.25;;;2.40;99.90;;;;;;4832561;29;20058;-82
2024/01/21 09:20:04;;;;;;;6.93;6.28;;;2.20;99.90;;;;;;4830114;29;20057;-84
2024/01/21 09:22:30;;;;;;;6.25;4.75;;;2.20;99.90;;;;;;4845755;29;20045;-84
2024/01/21 09:24:56;;;;;;;5.85;5.00;;;2.20;99.90;;;;;;4848154;29;20074;-88
2024/01/21 09:27:22;;;;;;;5.63;4.25;;;2.60;99.90;;;;;;4834017;29;20046;-83
2024/01/21 09:29:48;;;;;;;6.70;4.55;;;3.00;99.90;;;;;;4850261;29;20102;-84
2024/01/21 09:32:14;;;;;;;6.15;4.97;;;2.50;99.90;;;;;;4848494;29;20053;-78
2024/01/21 09:34:40;;;;;;;5.70;4.85;;;2.30;99.90;;;;;;4834741;29;20046;-83
2024/01/21 09:37:06;;;;;;;6.40;5.07;;;2.30;99.90;;;;;;4848762;29;20053;-79
2024/01/21 09:39:32;;;;;;;6.07;5.32;;;2.40;99.90;;;;;;4849535;29;20090;-82
2024/01/21 09:41:59;;;;;;;7.30;5.10;;;2.40;99.90;;;;;;4846464;29;20042;-82
2024/01/21 09:44:27;;;;;;;5.43;4.70;;;3.10;99.90;;;;;;4833622;29;20054;-80
2024/01/21 09:46:58;;;;;;;5.95;5.45;;;2.30;99.90;;;;;;4850245;29;20121;-81
2024/01/21 09:49:24;;;;;;;6.80;6.20;;;2.30;99.90;;;;;;4847338;29;20033;-79
2024/01/21 09:51:51;;;;;;;7.18;5.35;;;2.30;99.90;;;;;;4835228;29;20042;-84
2024/01/21 09:54:18;;;;;;;7.05;6.10;;;2.30;99.90;;;;;;4833816;29;20045;-81
2024/01/21 09:56:44;;;;;;;6.88;6.28;;;2.60;99.90;;;;;;4849881;29;20551;-80
2024/01/21 09:59:11;;;;;;;7.20;6.03;;;2.30;99.90;;;;;;4833969;29;20050;-82
2024/01/21 10:01:39;;;;;;;6.65;4.55;;;3.10;99.90;;;;;;4848518;29;20072;-81
2024/01/21 10:04:09;;;;;;;6.60;5.05;;;2.40;99.90;;;;;;4834309;29;20101;-79
2024/01/21 10:06:35;;;;;;;7.18;4.75;;;2.50;99.90;;;;;;4831799;29;20073;-81
2024/01/21 10:09:17;;;;;;;7.30;5.63;;;2.60;99.90;;;;;;4850146;29;20053;-80
2024/01/21 10:11:54;;;;;;;7.45;5.07;;;2.40;99.90;;;;;;4849002;29;20064;-79
2024/01/21 10:14:20;;;;;;;5.70;4.55;;;2.50;99.90;;;;;;4832834;29;20111;-81
2024/01/21 10:16:47;;;;;;;5.40;4.32;;;2.60;99.90;;;;;;4849650;29;20407;-81
2024/01/21 10:19:33;;;;;;;5.20;4.20;;;3.10;99.90;;;;;;4847972;29;20133;-82
2024/01/21 10:22:13;;;;;;;4.68;4.25;;;2.90;99.90;;;;;;4849959;29;20046;-80
2024/01/21 10:24:41;;;;;;;5.40;4.15;;;2.70;99.90;;;;;;4831448;29;20655;-82
2024/01/21 10:27:08;;;;;;;10.23;5.50;;;2.70;99.90;;;;;;4848734;29;20073;-84
2024/01/21 10:29:41;;;;;;;5.05;4.00;;;2.70;99.90;;;;;;4833846;29;20057;-81
2024/01/21 10:32:07;;;;;;;5.85;4.18;;;2.70;99.90;;;;;;4847712;29;20077;-81
2024/01/21 10:34:32;;;;;;;4.63;4.13;;;2.90;99.90;;;;;;4849904;29;20042;-84
2024/01/21 10:37:03;;;;;;;4.53;3.50;;;2.80;99.90;;;;;;4832001;29;20161;-78
2024/01/21 10:39:32;;;;;;;7.13;4.80;;;2.70;99.90;;;;;;4833685;29;20046;-82
2024/01/21 10:42:00;;;;;;;7.38;4.22;;;2.70;99.90;;;;;;4833940;29;20050;-87
2024/01/21 10:44:27;;;;;;;5.00;4.03;;;2.90;99.90;;;;;;4833371;29;20093;-83
2024/01/21 10:46:54;;;;;;;5.57;4.07;;;2.70;99.90;;;;;;4833013;29;20460;-83
2024/01/21 10:49:20;;;;;;;7.35;6.18;;;2.70;99.90;;;;;;4846889;29;20045;-85
2024/01/21 10:51:47;;;;;;;6.78;3.95;;;2.70;99.90;;;;;;4849155;29;20057;-81
2024/01/21 10:54:16;;;;;;;5.22;3.75;;;2.90;99.90;;;;;;4831728;29;20578;-80
2024/01/21 10:56:43;;;;;;;5.03;4.30;;;2.80;99.90;;;;;;4833488;29;20050;-85
2024/01/21 10:59:10;;;;;;;4.50;3.92;;;2.80;99.90;;;;;;4833345;29;20384;-79
2024/01/21 11:01:36;;;;;;;5.35;4.03;;;3.30;99.90;;;;;;4830152;29;20030;-84
2024/01/21 11:04:07;;;;;;;9.02;4.18;;;3.10;99.90;;;;;;4833551;29;20407;-83
2024/01/21 11:06:34;;;;;;;4.43;3.90;;;2.90;99.90;;;;;;4831914;29;20056;-84
2024/01/21 11:09:03;;;;;;;5.25;4.38;;;2.90;99.90;;;;;;4848526;29;20053;-87
2024/01/21 11:11:30;;;;;;;6.07;5.05;;;2.90;99.90;;;;;;4847226;29;20041;-80
2024/01/21 11:13:56;;;;;;;5.72;4.82;;;2.90;99.90;;;;;;4847806;29;20102;-83
2024/01/21 11:16:30;;;;;;;5.93;4.65;;;2.80;99.90;;;;;;4847739;29;20046;-82
2024/01/21 11:19:06;;;;;;;5.63;4.63;;;2.90;99.90;;;;;;4832354;29;20056;-84
2024/01/21 11:21:34;;;;;;;5.35;4.00;;;2.90;99.90;;;;;;4847136;29;20046;-84
2024/01/21 11:24:04;;;;;;;6.00;5.38;;;2.90;99.90;;;;;;4846970;29;20038;-83
2024/01/21 11:26:31;;;;;;;8.43;7.70;;;3.00;99.90;;;;;;4830773;29;20053;-82
2024/01/21 11:29:01;;;;;;;5.55;4.43;;;3.40;99.90;;;;;;4847824;29;20059;-84
2024/01/21 11:31:32;;;;;;;8.27;7.55;;;3.10;99.90;;;;;;4844678;29;20113;-81
2024/01/21 11:34:05;;;;;;;6.90;5.43;;;3.10;99.90;;;;;;4848999;29;20050;-87
2024/01/21 11:36:33;;;;;;;6.57;5.97;;;3.10;99.90;;;;;;4832312;29;20077;-80
2024/01/21 11:39:01;;;;;;;4.75;4.25;;;3.20;99.90;;;;;;4848510;29;20186;-82
2024/01/21 11:41:43;;;;;;;6.65;5.95;;;3.00;99.90;;;;;;4832912;29;20111;-79
2024/01/21 11:44:26;;;;;;;5.72;5.13;;;2.90;99.90;;;;;;4832227;29;20045;-82
2024/01/21 11:46:56;;;;;;;12.13;11.23;;;3.30;99.90;;;;;;4832111;29;20077;-83
2024/01/21 11:49:23;;;;;;;14.50;13.50;;;3.60;99.90;;;;;;4831584;29;20057;-82
2024/01/21 11:51:49;;;;;;;10.00;9.05;;;2.80;99.90;;;;;;4831192;29;20054;-84
2024/01/21 11:54:19;;;;;;;16.88;15.65;;;2.70;99.90;;;;;;4829166;29;20053;-83
2024/01/21 11:56:45;;;;;;;13.05;12.15;;;2.70;99.90;;;;;;4815058;29;20137;-81
2024/01/21 11:59:12;;;;;;;10.38;9.55;;;2.70;99.90;;;;;;4814632;29;20101;-82
2024/01/21 12:01:39;;;;;;;10.15;9.07;;;2.90;99.90;;;;;;4814336;29;20050;-86
2024/01/21 12:04:06;;;;;;;8.25;7.55;;;2.70;99.90;;;;;;4833641;29;20069;-82
2024/01/21 12:06:37;;;;;;;10.15;9.38;;;2.70;99.90;;;;;;4832102;29;20140;-83
2024/01/21 12:09:04;;;;;;;7.03;6.35;;;2.70;99.90;;;;;;4848601;29;20083;-79
2024/01/21 12:11:37;;;;;;;10.70;9.80;;;2.80;99.90;;;;;;4833346;29;20060;-81
2024/01/21 12:14:06;;;;;;;19.65;18.45;;;2.80;99.90;;;;;;4837910;29;20058;-81
2024/01/21 12:16:35;;;;;;;7.57;6.90;;;2.80;99.90;;;;;;4838674;29;20052;-82
2024/01/21 12:19:02;;;;;;;7.05;6.35;;;2.80;99.90;;;;;;4853563;29;20056;-91
2024/01/21 12:21:29;;;;;;;8.43;7.65;;;2.90;99.90;;;;;;4839710;29;20046;-83
2024/01/21 12:23:56;;;;;;;9.15;8.35;;;3.00;99.90;;;;;;4838111;29;20041;-82
2024/01/21 12:26:22;;;;;;;6.63;6.03;;;3.10;99.90;;;;;;4855174;29;20122;-81
2024/01/21 12:29:11;;;;;;;15.30;14.20;;;3.00;99.90;;;;;;4853862;29;20054;-82
2024/01/21 12:31:38;;;;;;;7.70;7.10;;;3.10;99.90;;;;;;4838142;29;20426;-82
2024/01/21 12:34:05;;;;;;;7.57;6.80;;;3.10;99.90;;;;;;4854739;29;20046;-83
2024/01/21 12:36:53;;;;;;;8.23;7.38;;;3.20;99.90;;;;;;4853105;29;20567;-88
2024/01/21 12:39:21;;;;;;;7.57;6.78;;;3.20;99.90;;;;;;4854465;29;20046;-83
2024/01/21 12:41:46;;;;;;;11.40;10.57;;;3.30;99.90;;;;;;4854281;29;20448;-85
2024/01/21 12:44:12;;;;;;;9.90;9.20;;;3.70;99.90;;;;;;4853499;29;20062;-84
2024/01/21 12:46:38;;;;;;;8.70;7.97;;;3.30;99.90;;;;;;4838977;29;20136;-86
2024/01/21 12:49:04;;;;;;;15.32;14.32;;;3.40;99.90;;;;;;4853614;29;20142;-84
2024/01/21 12:51:31;;;;;;;13.05;12.05;;;3.30;99.90;;;;;;4839406;29;20048;-86
2024/01/21 12:53:56;;;;;;;10.30;9.48;;;3.40;99.90;;;;;;4838237;29;20053;-84